Time;durP1;ratioP1;P1;durP2;ratioP2;P2;SDS_P1;SDS_P2;PMS_P1;PMS_P2;Temp;Humidity;BMP_temperature;BMP_pressure;BME280_temperature;BME280_humidity;BME280_pressure;Samples;Min_cycle;Max_cycle;Signal;HPM_P1;HPM_P2
2021/10/03 00:01:21;;;;;;;68.85;26.65;;;;;;;3.08;77.40;101558.09;5131994;27;20035;-73
2021/10/03 00:03:49;;;;;;;70.88;27.17;;;;;;;3.07;77.47;101558.13;5125469;27;20051;-71
2021/10/03 00:06:17;;;;;;;64.75;25.27;;;;;;;3.03;77.62;101554.69;5112464;28;20058;-71
2021/10/03 00:08:43;;;;;;;65.07;28.08;;;;;;;2.94;77.48;101554.84;5112774;27;20468;-73
2021/10/03 00:11:09;;;;;;;64.38;26.90;;;;;;;2.86;76.65;101551.47;5111766;27;20056;-73
2021/10/03 00:13:35;;;;;;;65.05;25.55;;;;;;;2.78;76.75;101555.91;5126440;27;20100;-72
2021/10/03 00:16:02;;;;;;;67.45;27.10;;;;;;;2.71;76.97;101550.78;5132638;27;20499;-72
2021/10/03 00:18:28;;;;;;;66.30;26.83;;;;;;;2.64;76.99;101562.22;5132135;27;20094;-73
2021/10/03 00:20:54;;;;;;;59.10;25.98;;;;;;;2.59;76.99;101551.81;5132470;27;20070;-74
2021/10/03 00:23:20;;;;;;;63.42;26.00;;;;;;;2.55;76.67;101559.72;5133091;27;20035;-74
2021/10/03 00:25:46;;;;;;;75.57;26.48;;;;;;;2.53;76.50;101556.25;5114534;27;20047;-73
2021/10/03 00:28:12;;;;;;;59.05;24.20;;;;;;;2.50;76.26;101562.38;5119840;27;20040;-72
2021/10/03 00:30:40;;;;;;;75.18;26.83;;;;;;;2.52;76.36;101555.41;5120128;27;20039;-72
2021/10/03 00:33:06;;;;;;;70.30;27.63;;;;;;;2.50;76.21;101556.31;5132604;27;20035;-73
2021/10/03 00:35:33;;;;;;;67.72;27.30;;;;;;;2.42;76.20;101554.66;5132626;27;20051;-73
2021/10/03 00:38:04;;;;;;;63.42;27.00;;;;;;;2.44;76.52;101552.00;5132132;27;20420;-71
2021/10/03 00:40:32;;;;;;;60.83;26.00;;;;;;;2.41;76.35;101555.53;5132753;27;20050;-72
2021/10/03 00:43:02;;;;;;;66.63;27.02;;;;;;;2.42;76.95;101554.66;5113710;27;20435;-74
2021/10/03 00:45:29;;;;;;;59.83;27.08;;;;;;;2.41;76.80;101547.69;5111978;28;20116;-73
2021/10/03 00:47:56;;;;;;;68.13;27.43;;;;;;;2.36;76.49;101552.13;5111832;28;20048;-73
2021/10/03 00:50:21;;;;;;;64.28;26.95;;;;;;;2.32;76.95;101553.03;5112075;28;20079;-72
2021/10/03 00:52:48;;;;;;;97.03;37.42;;;;;;;2.21;76.65;101550.56;5129237;27;20047;-74
2021/10/03 00:55:15;;;;;;;68.85;28.25;;;;;;;2.18;77.69;101545.38;5132433;27;20050;-73
2021/10/03 00:57:42;;;;;;;65.65;27.02;;;;;;;2.14;77.31;101553.25;5116740;27;20071;-75
2021/10/03 01:00:09;;;;;;;64.25;26.77;;;;;;;2.15;77.17;101544.56;5117017;27;20040;-72
2021/10/03 01:02:36;;;;;;;69.85;27.48;;;;;;;2.14;77.61;101550.66;5110362;28;20226;-72
2021/10/03 01:05:03;;;;;;;66.80;27.27;;;;;;;2.02;78.45;101549.91;5119362;27;20164;-73
2021/10/03 01:07:29;;;;;;;66.20;27.05;;;;;;;2.07;77.71;101545.50;5132492;27;20543;-72
2021/10/03 01:09:55;;;;;;;61.55;26.15;;;;;;;2.06;77.64;101538.53;5132022;28;20140;-74
2021/10/03 01:12:20;;;;;;;68.75;27.75;;;;;;;2.12;76.80;101542.84;5121830;27;20048;-71
2021/10/03 01:14:46;;;;;;;68.70;26.45;;;;;;;2.15;76.96;101547.16;5111200;28;20125;-74
2021/10/03 01:17:12;;;;;;;62.72;26.58;;;;;;;2.14;76.12;101543.66;5109110;28;20472;-75
2021/10/03 01:19:38;;;;;;;68.10;27.45;;;;;;;2.11;75.94;101548.94;5111433;28;20468;-73
2021/10/03 01:22:04;;;;;;;62.47;24.63;;;;;;;2.02;76.57;101542.09;5111511;28;20476;-74
2021/10/03 01:24:33;;;;;;;69.45;26.85;;;;;;;1.97;76.67;101549.09;5114555;28;20180;-73
2021/10/03 01:27:00;;;;;;;62.10;25.58;;;;;;;1.91;76.69;101549.16;5131501;27;20039;-75
2021/10/03 01:29:27;;;;;;;68.68;27.23;;;;;;;1.87;76.32;101542.22;5136476;27;20042;-74
2021/10/03 01:31:53;;;;;;;67.20;27.92;;;;;;;1.85;76.90;101544.00;5135685;27;20090;-73
2021/10/03 01:34:19;;;;;;;66.35;26.50;;;;;;;1.80;76.38;101543.19;5136268;27;20094;-75
2021/10/03 01:36:45;;;;;;;76.35;27.38;;;;;;;1.75;76.29;101541.50;5135312;27;20624;-75
2021/10/03 01:39:10;;;;;;;74.07;28.02;;;;;;;1.69;76.66;101538.94;5135814;27;20039;-72
2021/10/03 01:41:37;;;;;;;70.88;27.77;;;;;;;1.64;77.03;101538.13;5122414;27;20048;-73
2021/10/03 01:44:03;;;;;;;71.28;29.67;;;;;;;1.68;77.53;101544.19;5115354;28;20093;-72
2021/10/03 01:46:29;;;;;;;65.72;25.80;;;;;;;1.73;77.98;101545.00;5129809;27;20043;-71
2021/10/03 01:48:55;;;;;;;69.38;26.25;;;;;;;1.76;76.93;101543.22;5135435;27;20050;-72
2021/10/03 01:51:21;;;;;;;69.95;27.45;;;;;;;1.74;77.27;101544.13;5126211;27;20051;-76
2021/10/03 01:53:50;;;;;;;71.63;27.95;;;;;;;1.73;77.23;101542.38;5124361;27;20039;-73
2021/10/03 01:56:17;;;;;;;70.05;28.45;;;;;;;1.72;76.58;101538.03;5136088;27;20507;-75
2021/10/03 01:58:49;;;;;;;73.65;27.80;;;;;;;1.71;77.33;101545.00;5136322;27;20038;-73
2021/10/03 02:01:30;;;;;;;75.13;29.27;;;;;;;1.78;76.87;101557.13;5125376;27;20043;-74
2021/10/03 02:03:56;;;;;;;72.85;28.75;;;;;;;1.79;76.70;101550.16;5114154;28;20450;-77
2021/10/03 02:06:23;;;;;;;63.97;27.10;;;;;;;1.82;77.09;101552.75;5115331;27;20040;-72
2021/10/03 02:08:51;;;;;;;70.10;28.30;;;;;;;1.80;77.24;101548.41;5116063;28;20244;-75
2021/10/03 02:11:17;;;;;;;60.42;26.52;;;;;;;1.73;76.48;101551.09;5115711;28;20051;-74
2021/10/03 02:13:42;;;;;;;66.30;26.35;;;;;;;1.74;76.57;101558.00;5115638;28;20047;-73
2021/10/03 02:16:08;;;;;;;63.90;25.30;;;;;;;1.72;75.72;101551.97;5114757;28;20050;-74
2021/10/03 02:18:36;;;;;;;65.93;26.80;;;;;;;1.69;75.98;101551.97;5116166;27;20036;-75
2021/10/03 02:21:03;;;;;;;72.07;26.45;;;;;;;1.69;76.02;101553.75;5135187;27;20031;-78
2021/10/03 02:23:30;;;;;;;70.87;26.90;;;;;;;1.65;76.16;101555.50;5135109;27;20095;-75
2021/10/03 02:25:56;;;;;;;75.20;27.10;;;;;;;1.61;75.99;101551.22;5135258;27;20519;-76
2021/10/03 02:28:23;;;;;;;81.13;28.67;;;;;;;1.63;76.41;101546.81;5134906;27;20070;-73
2021/10/03 02:30:52;;;;;;;64.67;27.30;;;;;;;1.61;76.55;101548.59;5135046;27;20043;-76
2021/10/03 02:33:20;;;;;;;68.18;25.63;;;;;;;1.63;76.38;101551.19;5134425;27;20092;-72
2021/10/03 02:35:46;;;;;;;70.13;26.42;;;;;;;1.66;75.82;101554.63;5134527;27;20043;-74
2021/10/03 02:38:15;;;;;;;71.28;29.00;;;;;;;1.68;76.06;101560.69;5132478;27;20075;-76
2021/10/03 02:40:40;;;;;;;;;;;;;;;1.68;75.65;101555.47;5123162;27;20123;-73
2021/10/03 02:43:08;;;;;;;65.10;25.63;;;;;;;1.67;76.11;101561.59;5134219;27;19995;-77
2021/10/03 02:45:36;;;;;;;74.05;28.90;;;;;;;1.66;76.19;101556.34;5134632;27;20035;-74
2021/10/03 02:48:03;;;;;;;73.60;27.10;;;;;;;1.63;75.81;101546.81;5131204;27;20061;-79
2021/10/03 02:50:29;;;;;;;65.82;27.45;;;;;;;1.64;75.96;101550.31;5114212;27;20047;-73
2021/10/03 02:52:55;;;;;;;64.57;27.23;;;;;;;1.58;75.64;101554.72;5116095;27;20043;-75
2021/10/03 02:55:21;;;;;;;74.35;29.33;;;;;;;1.50;75.54;101546.09;5114167;28;20066;-75
2021/10/03 02:57:47;;;;;;;75.93;28.50;;;;;;;1.48;76.42;101553.03;5113916;28;20076;-72
2021/10/03 03:00:13;;;;;;;68.20;27.52;;;;;;;1.41;75.96;101552.25;5114551;27;20511;-76
2021/10/03 03:02:39;;;;;;;78.28;28.85;;;;;;;1.40;76.11;101547.91;5113446;28;20055;-72
2021/10/03 03:05:08;;;;;;;79.57;29.77;;;;;;;1.41;75.96;101548.78;5113788;28;20035;-73
2021/10/03 03:07:35;;;;;;;79.20;31.20;;;;;;;1.40;76.94;101549.66;5113840;28;20039;-76
2021/10/03 03:10:02;;;;;;;88.68;31.45;;;;;;;1.45;77.43;101553.94;5112258;28;20055;-73
2021/10/03 03:12:28;;;;;;;77.53;28.75;;;;;;;1.54;78.96;101553.00;5113541;28;20150;-72
2021/10/03 03:14:54;;;;;;;81.25;29.75;;;;;;;1.63;79.29;101561.63;5114818;27;20122;-74
2021/10/03 03:17:22;;;;;;;82.72;30.25;;;;;;;1.67;79.43;101558.97;5132524;27;20509;-73
2021/10/03 03:19:47;;;;;;;83.20;32.25;;;;;;;1.67;79.28;101566.81;5133007;27;20099;-71
2021/10/03 03:22:13;;;;;;;75.40;30.33;;;;;;;1.69;78.50;101557.19;5113087;28;20484;-75
2021/10/03 03:24:40;;;;;;;81.90;30.27;;;;;;;1.71;77.96;101565.88;5113409;27;20047;-72
2021/10/03 03:27:06;;;;;;;80.43;29.73;;;;;;;1.75;78.21;101553.69;5113982;27;20046;-76
2021/10/03 03:29:33;;;;;;;79.43;30.33;;;;;;;1.77;77.26;101560.59;5122937;27;20039;-74
2021/10/03 03:31:59;;;;;;;79.90;29.67;;;;;;;1.78;76.95;101564.94;5126756;27;20043;-76
2021/10/03 03:34:25;;;;;;;81.18;30.35;;;;;;;1.77;76.35;101564.97;5121282;27;20067;-72
2021/10/03 03:36:51;;;;;;;73.30;28.13;;;;;;;1.78;75.82;101567.56;5129443;27;20044;-74
2021/10/03 03:39:17;;;;;;;74.13;30.13;;;;;;;1.79;76.20;101568.41;5112623;28;20647;-73
2021/10/03 03:41:43;;;;;;;80.25;29.63;;;;;;;1.80;76.26;101564.94;5118149;27;20065;-75
2021/10/03 03:44:09;;;;;;;79.63;30.20;;;;;;;1.84;75.36;101568.38;5122361;27;20085;-76
2021/10/03 03:46:34;;;;;;;84.97;30.05;;;;;;;1.96;76.02;101560.41;5112355;28;20039;-74
2021/10/03 03:49:00;;;;;;;77.43;30.00;;;;;;;2.17;76.11;101561.94;5112952;28;20044;-77
2021/10/03 03:51:26;;;;;;;71.03;29.42;;;;;;;2.42;75.87;101559.88;5113721;27;20059;-75
2021/10/03 03:53:52;;;;;;;77.63;28.45;;;;;;;2.70;73.66;101564.72;5133461;27;20035;-76
2021/10/03 03:56:18;;;;;;;79.82;29.73;;;;;;;2.89;73.06;101560.13;5126223;27;20496;-75
2021/10/03 03:58:43;;;;;;;68.05;26.50;;;;;;;2.98;73.51;101548.66;5112159;28;20084;-76
2021/10/03 04:01:09;;;;;;;74.82;29.23;;;;;;;3.09;73.26;101553.72;5115893;27;20035;-72
2021/10/03 04:03:36;;;;;;;76.20;30.83;;;;;;;3.03;72.30;101556.44;5121365;27;20061;-75
2021/10/03 04:06:03;;;;;;;73.40;29.85;;;;;;;3.14;72.90;101551.91;5112655;27;20027;-73
2021/10/03 04:08:29;;;;;;;75.88;29.52;;;;;;;3.56;71.53;101557.31;5112588;28;20082;-74
2021/10/03 04:10:55;;;;;;;75.63;28.65;;;;;;;4.19;70.10;101562.28;5112470;28;20135;-73
2021/10/03 04:13:21;;;;;;;69.10;27.90;;;;;;;4.79;68.27;101568.84;5116413;27;20143;-72
2021/10/03 04:15:47;;;;;;;66.82;28.25;;;;;;;5.27;67.04;101567.75;5131860;27;20660;-74
2021/10/03 04:18:16;;;;;;;64.63;26.02;;;;;;;5.82;65.60;101562.00;5132957;27;20077;-73
2021/10/03 04:20:42;;;;;;;70.07;28.35;;;;;;;6.01;64.50;101557.13;5132282;27;20039;-73
2021/10/03 04:23:08;;;;;;;71.22;26.23;;;;;;;5.98;64.90;101562.44;5131539;27;20425;-73
2021/10/03 04:25:34;;;;;;;59.78;23.95;;;;;;;6.14;64.27;101562.91;5134864;27;20134;-74
2021/10/03 04:28:00;;;;;;;60.58;23.15;;;;;;;6.25;62.99;101566.09;5133196;27;20031;-73
2021/10/03 04:30:26;;;;;;;54.33;22.65;;;;;;;6.42;63.80;101564.75;5114663;28;20048;-73
2021/10/03 04:32:52;;;;;;;59.03;24.45;;;;;;;6.80;61.77;101565.38;5114922;28;20043;-73
2021/10/03 04:35:18;;;;;;;58.80;23.85;;;;;;;7.44;60.37;101558.97;5114635;28;20127;-75
2021/10/03 04:37:44;;;;;;;58.13;23.83;;;;;;;7.51;59.94;101554.34;5114923;28;20044;-76
2021/10/03 04:40:10;;;;;;;59.65;25.58;;;;;;;8.01;58.00;101561.38;5115103;27;20061;-74
2021/10/03 04:42:36;;;;;;;68.35;25.40;;;;;;;7.24;59.37;101557.84;5114528;28;20058;-74
2021/10/03 04:45:03;;;;;;;68.80;31.33;;;;;;;7.47;59.68;101558.84;5124287;27;20039;-74
2021/10/03 04:47:28;;;;;;;73.07;29.50;;;;;;;8.24;57.89;101565.84;5132044;27;20084;-74
2021/10/03 04:49:54;;;;;;;75.97;28.63;;;;;;;8.88;55.72;101559.91;5132206;27;20073;-73
2021/10/03 04:52:21;;;;;;;60.90;27.27;;;;;;;9.48;54.08;101566.31;5131435;27;20073;-74
2021/10/03 04:54:47;;;;;;;60.63;25.60;;;;;;;10.09;53.00;101554.84;5130871;27;20482;-73
2021/10/03 04:57:13;;;;;;;58.28;26.85;;;;;;;10.81;51.08;101553.34;5131335;27;20084;-73
2021/10/03 04:59:39;;;;;;;57.67;26.85;;;;;;;11.13;50.06;101555.38;5130487;27;20675;-74
2021/10/03 05:02:04;;;;;;;59.80;27.23;;;;;;;11.38;48.88;101560.31;5132203;27;20135;-74
2021/10/03 05:04:30;;;;;;;62.25;27.10;;;;;;;11.62;48.62;101552.06;5131799;27;20430;-74
2021/10/03 05:06:56;;;;;;;59.45;28.55;;;;;;;12.44;47.27;101556.59;5130373;27;20043;-76
2021/10/03 05:09:22;;;;;;;59.10;28.25;;;;;;;12.92;45.57;101556.63;5131993;27;20070;-73
2021/10/03 05:11:48;;;;;;;59.95;26.65;;;;;;;13.08;45.16;101556.59;5132039;27;20058;-71
2021/10/03 05:14:13;;;;;;;53.65;27.30;;;;;;;13.31;44.22;101565.03;5120156;28;20051;-73
2021/10/03 05:16:39;;;;;;;49.92;27.17;;;;;;;13.02;44.49;101559.63;5111475;28;20046;-74
2021/10/03 05:19:06;;;;;;;51.55;26.45;;;;;;;12.90;44.68;101562.97;5111588;28;20046;-74
2021/10/03 05:21:32;;;;;;;56.63;28.20;;;;;;;12.02;46.10;101570.38;5114863;27;20044;-74
2021/10/03 05:23:58;;;;;;;57.22;27.88;;;;;;;12.02;46.67;101576.53;5132220;28;20039;-77
2021/10/03 05:26:24;;;;;;;54.55;28.00;;;;;;;12.54;45.60;101582.66;5119718;27;20052;-74
2021/10/03 05:28:50;;;;;;;59.38;28.70;;;;;;;12.88;44.27;101580.78;5119614;27;20589;-79
2021/10/03 05:31:16;;;;;;;57.22;28.38;;;;;;;13.32;43.83;101572.06;5132063;28;20138;-78
2021/10/03 05:33:42;;;;;;;60.08;28.55;;;;;;;13.13;43.61;101568.75;5118873;27;20077;-76
2021/10/03 05:36:08;;;;;;;61.05;29.48;;;;;;;13.49;43.21;101578.22;5111817;28;20122;-78
2021/10/03 05:38:34;;;;;;;59.15;29.67;;;;;;;13.13;43.32;101568.75;5112121;28;20039;-75
2021/10/03 05:40:59;;;;;;;60.92;30.52;;;;;;;12.61;44.24;101584.00;5112094;28;20536;-78
2021/10/03 05:43:25;;;;;;;77.47;38.17;;;;;;;13.07;44.31;101576.13;5115757;28;20042;-76
2021/10/03 05:45:51;;;;;;;61.45;30.23;;;;;;;12.94;43.21;101575.97;5131808;27;20127;-76
2021/10/03 05:48:19;;;;;;;68.75;30.65;;;;;;;12.13;43.92;101574.16;5131833;27;20043;-75
2021/10/03 05:50:45;;;;;;;62.28;31.75;;;;;;;12.32;45.16;101577.66;5127746;27;20126;-77
2021/10/03 05:53:10;;;;;;;61.90;30.75;;;;;;;12.94;43.57;101564.50;5131635;27;20047;-75
2021/10/03 05:55:36;;;;;;;57.67;29.15;;;;;;;13.27;42.75;101567.03;5131042;27;20043;-75
2021/10/03 05:58:02;;;;;;;56.90;28.75;;;;;;;14.81;40.90;101568.44;5130405;28;20369;-74
2021/10/03 06:00:28;;;;;;;59.20;30.00;;;;;;;16.50;37.62;101563.25;5125285;28;20062;-76
2021/10/03 06:02:54;;;;;;;66.40;32.42;;;;;;;14.99;39.04;101567.22;5131901;27;20139;-80
2021/10/03 06:05:20;;;;;;;60.70;29.60;;;;;;;16.00;37.95;101574.72;5124689;27;20043;-74
2021/10/03 06:07:45;;;;;;;71.22;33.50;;;;;;;15.81;37.49;101574.25;5112901;28;20091;-75
2021/10/03 06:10:11;;;;;;;61.67;32.25;;;;;;;16.30;37.04;101578.88;5118610;27;20039;-78
2021/10/03 06:12:38;;;;;;;68.18;33.42;;;;;;;15.40;37.60;101576.09;5118747;27;20534;-77
2021/10/03 06:15:05;;;;;;;71.22;36.38;;;;;;;14.98;38.14;101570.84;5127684;27;20036;-78
2021/10/03 06:17:33;;;;;;;68.10;34.42;;;;;;;15.89;37.89;101565.75;5122202;27;20455;-75
2021/10/03 06:19:58;;;;;;;65.50;34.10;;;;;;;17.14;35.57;101567.53;5122075;27;20076;-77
2021/10/03 06:22:26;;;;;;;73.97;37.50;;;;;;;16.13;36.15;101571.19;5121826;27;20039;-77
2021/10/03 06:24:52;;;;;;;68.90;35.60;;;;;;;16.51;36.36;101572.97;5122248;27;20050;-77
2021/10/03 06:27:18;;;;;;;71.93;37.80;;;;;;;16.57;35.96;101577.00;5122637;27;20039;-78
2021/10/03 06:29:45;;;;;;;68.72;36.40;;;;;;;17.34;35.26;101567.88;5119118;27;20085;-81
2021/10/03 06:32:11;;;;;;;114.40;58.88;;;;;;;15.98;35.96;101581.97;5123593;27;20393;-84
2021/10/03 06:34:37;;;;;;;68.63;35.33;;;;;;;15.83;36.60;101575.03;5123612;27;20060;-77
2021/10/03 06:37:03;;;;;;;71.68;36.25;;;;;;;14.85;38.29;101572.59;5125489;27;20038;-78
2021/10/03 06:39:29;;;;;;;71.68;33.75;;;;;;;14.92;38.26;101573.06;5114964;27;20066;-79
2021/10/03 06:41:55;;;;;;;66.43;34.25;;;;;;;16.11;37.22;101567.78;5104109;28;20043;-79
2021/10/03 06:44:21;;;;;;;77.75;37.83;;;;;;;16.44;36.05;101571.69;5131561;27;20126;-81
2021/10/03 06:46:47;;;;;;;71.07;37.40;;;;;;;16.27;36.41;101578.22;5119483;27;20539;-75
2021/10/03 06:49:13;;;;;;;73.28;35.63;;;;;;;16.60;36.01;101577.66;5124034;27;20122;-78
2021/10/03 06:51:42;;;;;;;68.75;36.28;;;;;;;16.81;35.85;101571.72;5090020;27;20044;-79
2021/10/03 06:54:10;;;;;;;69.40;33.40;;;;;;;16.72;35.88;101575.03;5121982;27;20039;-77
2021/10/03 06:56:36;;;;;;;;;;;;;;;17.43;34.61;101573.38;5121311;27;20039;-78
2021/10/03 06:59:03;;;;;;;67.75;32.85;;;;;;;17.93;33.58;101564.25;5120944;27;19926;-76
2021/10/03 07:01:30;;;;;;;63.17;32.97;;;;;;;17.82;33.54;101567.78;5124044;27;20035;-76
2021/10/03 07:03:56;;;;;;;63.33;33.20;;;;;;;17.29;34.15;101570.88;5131121;27;20091;-75
2021/10/03 07:06:22;;;;;;;58.35;32.28;;;;;;;18.03;33.59;101559.06;5124707;27;20055;-76
2021/10/03 07:08:47;;;;;;;66.75;33.42;;;;;;;17.48;34.13;101564.97;5114474;27;20134;-77
2021/10/03 07:11:13;;;;;;;63.97;34.10;;;;;;;17.81;34.21;101566.06;5114119;27;20051;-78
2021/10/03 07:13:39;;;;;;;67.10;33.70;;;;;;;18.23;33.70;101569.06;5118236;27;20059;-75
2021/10/03 07:16:05;;;;;;;65.65;33.08;;;;;;;19.15;31.51;101564.41;5119297;27;20125;-76
2021/10/03 07:18:31;;;;;;;65.90;33.20;;;;;;;18.27;32.89;101559.78;5119412;27;20123;-79
2021/10/03 07:20:58;;;;;;;64.35;34.30;;;;;;;18.57;33.21;101560.97;5114481;27;20040;-77
2021/10/03 07:23:26;;;;;;;64.55;33.10;;;;;;;18.25;32.62;101558.22;5125514;27;20131;-76
2021/10/03 07:25:52;;;;;;;62.72;32.63;;;;;;;17.93;33.21;101565.09;5129930;27;20031;-81
2021/10/03 07:28:20;;;;;;;65.93;33.92;;;;;;;18.93;32.20;101563.50;5115441;27;20452;-75
2021/10/03 07:30:46;;;;;;;66.38;31.83;;;;;;;19.39;31.53;101561.50;5121280;27;20090;-77
2021/10/03 07:33:13;;;;;;;61.75;31.85;;;;;;;19.99;30.68;101569.81;5120262;27;20126;-80
2021/10/03 07:35:39;;;;;;;62.20;32.95;;;;;;;19.71;30.34;101561.44;5114076;27;20502;-77
2021/10/03 07:38:05;;;;;;;66.63;33.03;;;;;;;19.43;30.86;101560.25;5129082;27;20046;-84
2021/10/03 07:40:31;;;;;;;65.30;31.92;;;;;;;19.13;31.28;101561.00;5114278;27;20050;-80
2021/10/03 07:42:57;;;;;;;58.70;31.92;;;;;;;19.13;31.18;101559.16;5132636;27;20050;-79
2021/10/03 07:45:22;;;;;;;61.70;33.03;;;;;;;19.08;31.75;101554.19;5130471;27;20058;-80
2021/10/03 07:47:48;;;;;;;67.00;33.05;;;;;;;21.36;29.32;101555.00;5127753;27;20445;-78
2021/10/03 07:50:14;;;;;;;65.30;34.42;;;;;;;21.06;28.10;101556.88;5121369;27;20132;-79
2021/10/03 07:52:40;;;;;;;64.13;34.42;;;;;;;21.80;27.80;101542.78;5114262;27;20043;-83
2021/10/03 07:55:06;;;;;;;73.25;36.50;;;;;;;21.10;28.52;101543.00;5100224;27;20496;-81
2021/10/03 07:57:32;;;;;;;73.82;38.22;;;;;;;22.48;27.17;101545.38;5111848;27;20038;-85
2021/10/03 07:59:58;;;;;;;66.45;35.70;;;;;;;22.88;25.81;101541.41;5119893;27;20149;-81
2021/10/03 08:02:24;;;;;;;77.00;37.88;;;;;;;21.82;27.55;101545.34;5117439;27;20108;-78
2021/10/03 08:04:50;;;;;;;69.10;36.08;;;;;;;21.56;27.43;101547.78;5121279;27;20062;-77
2021/10/03 08:07:15;;;;;;;72.35;36.55;;;;;;;20.89;28.29;101547.66;5118659;27;20122;-80
2021/10/03 08:09:42;;;;;;;76.50;36.72;;;;;;;20.82;28.47;101541.97;5119987;27;20047;-82
2021/10/03 08:12:08;;;;;;;68.03;37.83;;;;;;;21.50;27.77;101547.34;5114526;27;20050;-79
2021/10/03 08:14:34;;;;;;;72.40;35.05;;;;;;;21.13;28.44;101545.41;5115928;27;20038;-77
2021/10/03 08:16:59;;;;;;;69.18;37.10;;;;;;;20.76;28.72;101537.16;5120411;27;20052;-80
2021/10/03 08:19:25;;;;;;;73.05;35.85;;;;;;;21.33;27.99;101534.63;5118431;27;20073;-82
2021/10/03 08:21:51;;;;;;;70.65;36.88;;;;;;;21.66;27.39;101535.19;5122518;27;20435;-80
2021/10/03 08:24:17;;;;;;;69.65;37.30;;;;;;;20.34;28.86;101548.91;5123989;27;20139;-77
2021/10/03 08:26:44;;;;;;;72.93;36.80;;;;;;;20.42;29.08;101543.69;5123960;27;20114;-80
2021/10/03 08:29:14;;;;;;;70.28;34.97;;;;;;;21.49;27.93;101539.44;5086267;28;20070;-80
2021/10/03 08:31:45;;;;;;;66.10;35.63;;;;;;;21.68;27.79;101535.88;5122573;27;20031;-80
2021/10/03 08:34:11;;;;;;;66.93;36.10;;;;;;;23.14;25.88;101535.25;5120779;27;20563;-77
2021/10/03 08:36:37;;;;;;;70.57;34.90;;;;;;;23.40;25.24;101536.19;5122686;27;20062;-79
2021/10/03 08:39:06;;;;;;;62.88;34.17;;;;;;;22.99;25.32;101533.13;5123276;27;20096;-80
2021/10/03 08:41:31;;;;;;;69.95;37.42;;;;;;;21.58;26.99;101535.91;5119346;27;20392;-82
2021/10/03 08:43:57;;;;;;;70.95;36.25;;;;;;;20.79;27.61;101537.72;5120991;27;20084;-82
2021/10/03 08:46:25;;;;;;;71.38;35.45;;;;;;;21.63;27.52;101528.25;5120632;27;20048;-79
2021/10/03 08:48:52;;;;;;;68.85;34.88;;;;;;;22.96;25.77;101538.81;5121086;27;20035;-81
2021/10/03 08:51:18;;;;;;;;;;;;;;;21.21;27.05;101541.16;5123430;27;20782;-81
2021/10/03 08:53:43;;;;;;;59.55;31.65;;;;;;;21.73;27.16;101536.31;5122014;27;19915;-80
2021/10/03 08:56:09;;;;;;;50.50;27.55;;;;;;;20.90;27.54;101534.06;5121889;27;20039;-82
2021/10/03 08:58:35;;;;;;;52.13;26.55;;;;;;;21.04;27.44;101540.88;5120729;27;20028;-80
2021/10/03 09:01:02;;;;;;;42.38;23.45;;;;;;;21.28;27.33;101536.91;5122866;27;20479;-80
2021/10/03 09:03:28;;;;;;;45.13;23.15;;;;;;;21.84;26.89;101534.44;5120527;28;20031;-79
2021/10/03 09:05:57;;;;;;;47.08;25.60;;;;;;;20.96;27.19;101533.50;5120378;28;20046;-82
2021/10/03 09:08:23;;;;;;;44.20;22.33;;;;;;;20.45;28.12;101540.75;5119506;28;20118;-80
2021/10/03 09:10:51;;;;;;;48.10;22.73;;;;;;;20.84;27.70;101534.63;5119858;28;20054;-77
2021/10/03 09:13:18;;;;;;;38.72;22.15;;;;;;;20.63;27.82;101545.47;5118555;27;20071;-79
2021/10/03 09:15:46;;;;;;;33.20;18.73;;;;;;;20.32;28.20;101548.19;5120719;27;20035;-78
2021/10/03 09:18:15;;;;;;;38.78;21.65;;;;;;;19.93;29.00;101556.09;5122211;27;20059;-77
2021/10/03 09:20:42;;;;;;;39.90;20.20;;;;;;;20.72;28.22;101531.19;5121736;28;20123;-77
2021/10/03 09:23:08;;;;;;;40.20;21.40;;;;;;;20.70;28.00;101549.31;5118780;28;20047;-79
2021/10/03 09:25:48;;;;;;;39.50;20.58;;;;;;;20.73;27.78;101557.09;5121434;28;20046;-81
2021/10/03 09:28:23;;;;;;;43.17;19.38;;;;;;;20.07;28.66;101544.97;5120747;28;20040;-78
2021/10/03 09:30:56;;;;;;;44.10;20.42;;;;;;;20.08;28.58;101535.09;5120104;28;20035;-77
2021/10/03 09:33:24;;;;;;;40.20;19.73;;;;;;;20.12;28.72;101544.59;5119411;28;20130;-79
2021/10/03 09:36:11;;;;;;;37.45;20.95;;;;;;;19.15;30.06;101530.41;5118426;28;20494;-80
2021/10/03 09:38:49;;;;;;;40.28;18.50;;;;;;;19.14;30.24;101528.69;5122372;28;20039;-79
2021/10/03 09:41:17;;;;;;;38.38;21.38;;;;;;;19.27;30.22;101535.72;5120137;28;20111;-80
2021/10/03 09:43:47;;;;;;;45.15;22.05;;;;;;;18.47;31.00;101541.28;5120946;28;20062;-80
2021/10/03 09:46:36;;;;;;;25.65;14.85;;;;;;;18.24;31.18;101533.25;5124453;27;20069;-76
2021/10/03 09:49:04;;;;;;;64.93;28.98;;;;;;;17.53;32.42;101540.56;5123781;27;20119;-79
2021/10/03 09:51:30;;;;;;;27.50;15.20;;;;;;;17.28;32.86;101535.28;5123865;27;20101;-80
2021/10/03 09:53:57;;;;;;;30.67;13.63;;;;;;;17.35;32.81;101532.13;5124730;27;20039;-78
2021/10/03 09:56:23;;;;;;;29.85;14.90;;;;;;;17.24;33.25;101536.47;5119250;27;20039;-76
2021/10/03 09:58:49;;;;;;;31.50;16.00;;;;;;;17.01;33.58;101524.84;5119393;27;20488;-80
2021/10/03 10:01:16;;;;;;;26.60;14.13;;;;;;;16.97;33.52;101534.03;5120818;27;20032;-81
2021/10/03 10:03:43;;;;;;;28.42;13.00;;;;;;;17.44;33.15;101531.44;5129798;27;20495;-81
2021/10/03 10:06:08;;;;;;;27.55;14.05;;;;;;;17.61;32.93;101522.09;5123175;27;20051;-81
2021/10/03 10:08:35;;;;;;;27.90;12.60;;;;;;;18.02;32.77;101511.81;5118536;27;20046;-83
2021/10/03 10:11:41;;;;;;;26.33;13.20;;;;;;;17.42;32.99;101526.19;5121965;27;20047;-80
2021/10/03 10:14:08;;;;;;;29.63;14.07;;;;;;;17.21;33.27;101526.00;5123637;27;20152;-83
2021/10/03 10:16:42;;;;;;;32.42;15.65;;;;;;;17.37;33.20;101531.06;5123398;27;20042;-82
2021/10/03 10:19:28;;;;;;;35.22;14.88;;;;;;;17.13;33.47;101523.03;5120755;27;20039;-75
2021/10/03 10:22:15;;;;;;;30.60;13.52;;;;;;;17.14;33.57;101524.75;5124182;27;20039;-78
2021/10/03 10:25:03;;;;;;;30.05;13.55;;;;;;;16.50;34.57;101523.19;5126296;27;20039;-79
2021/10/03 10:27:29;;;;;;;24.73;13.40;;;;;;;16.23;34.91;101524.19;5119921;27;20059;-79
2021/10/03 10:30:03;;;;;;;24.65;11.93;;;;;;;16.18;35.24;101518.34;5106599;27;20070;-80
2021/10/03 10:32:54;;;;;;;29.25;12.60;;;;;;;16.56;34.67;101511.19;5128425;27;20224;-79
2021/10/03 10:35:22;;;;;;;30.67;14.20;;;;;;;16.44;35.29;101512.94;5120034;27;20087;-82
2021/10/03 10:37:51;;;;;;;26.33;13.23;;;;;;;16.28;35.12;101506.03;5107315;27;20042;-77
2021/10/03 10:40:24;;;;;;;24.63;11.48;;;;;;;16.12;35.35;101513.44;5117496;27;20039;-79
2021/10/03 10:43:18;;;;;;;25.70;11.48;;;;;;;16.20;35.33;101512.88;5119357;27;20483;-80
2021/10/03 10:45:46;;;;;;;22.45;12.82;;;;;;;16.23;35.40;101502.00;5124005;27;20122;-81
2021/10/03 10:48:16;;;;;;;27.58;12.60;;;;;;;16.48;35.19;101501.06;5119297;27;20492;-77
2021/10/03 10:50:44;;;;;;;25.13;12.10;;;;;;;16.12;35.41;101505.41;5118870;27;20035;-83
2021/10/03 10:53:31;;;;;;;24.50;11.88;;;;;;;15.63;36.13;101499.03;5124255;27;20515;-83
2021/10/03 10:56:09;;;;;;;29.30;11.55;;;;;;;15.64;36.27;101501.56;5132026;27;20039;-79
2021/10/03 10:58:39;;;;;;;27.67;11.55;;;;;;;15.76;36.35;101488.34;5120186;27;20096;-81
2021/10/03 11:01:11;;;;;;;26.05;12.05;;;;;;;15.49;37.20;101492.81;5120618;27;20035;-81
2021/10/03 11:03:43;;;;;;;22.45;11.27;;;;;;;15.46;36.88;101490.34;5133866;27;20458;-78
2021/10/03 11:06:12;;;;;;;22.70;10.95;;;;;;;15.10;37.61;101491.03;5133037;27;20087;-81
2021/10/03 11:09:16;;;;;;;24.45;11.25;;;;;;;14.84;38.13;101486.50;5114004;28;20062;-78
2021/10/03 11:12:00;;;;;;;27.67;11.95;;;;;;;14.59;38.80;101492.53;5048444;28;20056;-78
2021/10/03 11:14:27;;;;;;;27.42;12.38;;;;;;;14.66;39.00;101487.72;5046522;28;20048;-78
2021/10/03 11:16:59;;;;;;;29.40;12.82;;;;;;;14.70;38.85;101482.09;5032540;28;20041;-77